sensor_id;sensor_type;location;lat;lon;timestamp;temperature;humidity
9385;DHT22;4732;49.340;10.886;2023-06-19T03:01:08;17.90;99.90
9385;DHT22;4732;49.340;10.886;2023-06-19T03:03:34;17.90;99.90
9385;DHT22;4732;49.340;10.886;2023-06-19T03:06:07;17.80;99.90
9385;DHT22;4732;49.340;10.886;2023-06-19T03:08:34;17.80;99.90
9385;DHT22;4732;49.340;10.886;2023-06-19T03:10:59;17.90;99.90
9385;DHT22;4732;49.340;10.886;2023-06-19T03:13:25;17.90;99.90
9385;DHT22;4732;49.340;10.886;2023-06-19T03:15:50;17.80;99.90
9385;DHT22;4732;49.340;10.886;2023-06-19T03:18:16;17.90;99.90
9385;DHT22;4732;49.340;10.886;2023-06-19T03:20:41;17.90;99.90
9385;DHT22;4732;49.340;10.886;2023-06-19T03:23:07;17.90;99.90
9385;DHT22;4732;49.340;10.886;2023-06-19T03:25:32;17.90;99.90
9385;DHT22;4732;49.340;10.886;2023-06-19T03:28:01;17.80;99.90
9385;DHT22;4732;49.340;10.886;2023-06-19T03:30:28;17.80;99.90
9385;DHT22;4732;49.340;10.886;2023-06-19T03:32:53;17.70;99.90
9385;DHT22;4732;49.340;10.886;2023-06-19T03:35:19;17.80;99.90
9385;DHT22;4732;49.340;10.886;2023-06-19T03:37:44;17.80;99.90
9385;DHT22;4732;49.340;10.886;2023-06-19T03:40:10;17.90;99.90
9385;DHT22;4732;49.340;10.886;2023-06-19T03:42:39;17.90;99.90
9385;DHT22;4732;49.340;10.886;2023-06-19T03:45:05;17.70;99.90
9385;DHT22;4732;49.340;10.886;2023-06-19T03:47:31;17.70;99.90
9385;DHT22;4732;49.340;10.886;2023-06-19T03:49:57;17.80;99.90
9385;DHT22;4732;49.340;10.886;2023-06-19T03:52:22;17.80;99.90
9385;DHT22;4732;49.340;10.886;2023-06-19T03:54:48;17.70;99.90
9385;DHT22;4732;49.340;10.886;2023-06-19T03:57:13;17.70;99.90
9385;DHT22;4732;49.340;10.886;2023-06-19T03:59:39;17.80;99.90
9385;DHT22;4732;49.340;10.886;2023-06-19T04:02:04;17.90;99.90
9385;DHT22;4732;49.340;10.886;2023-06-19T04:04:30;18.00;99.90
9385;DHT22;4732;49.340;10.886;2023-06-19T04:06:55;18.00;99.90
9385;DHT22;4732;49.340;10.886;2023-06-19T04:13:08;18.10;99.90
9385;DHT22;4732;49.340;10.886;2023-06-19T04:15:34;18.20;99.90
9385;DHT22;4732;49.340;10.886;2023-06-19T04:21:23;18.30;99.90
9385;DHT22;4732;49.340;10.886;2023-06-19T04:23:48;18.30;99.90
9385;DHT22;4732;49.340;10.886;2023-06-19T04:26:14;18.40;99.90
9385;DHT22;4732;49.340;10.886;2023-06-19T04:28:39;18.40;99.90
9385;DHT22;4732;49.340;10.886;2023-06-19T04:31:05;18.50;99.90
9385;DHT22;4732;49.340;10.886;2023-06-19T04:39:59;18.70;99.90
9385;DHT22;4732;49.340;10.886;2023-06-19T04:42:31;18.80;99.90
9385;DHT22;4732;49.340;10.886;2023-06-19T04:48:33;18.90;99.90
9385;DHT22;4732;49.340;10.886;2023-06-19T04:51:07;19.00;99.90
9385;DHT22;4732;49.340;10.886;2023-06-19T04:57:22;19.10;99.90
9385;DHT22;4732;49.340;10.886;2023-06-19T04:59:54;19.20;99.90
9385;DHT22;4732;49.340;10.886;2023-06-19T05:12:25;19.60;99.90
9385;DHT22;4732;49.340;10.886;2023-06-19T05:14:51;19.80;99.90
9385;DHT22;4732;49.340;10.886;2023-06-19T05:17:16;19.80;99.90
9385;DHT22;4732;49.340;10.886;2023-06-19T05:19:42;19.80;99.90
9385;DHT22;4732;49.340;10.886;2023-06-19T05:22:08;19.90;99.90
9385;DHT22;4732;49.340;10.886;2023-06-19T05:24:33;20.00;99.90
9385;DHT22;4732;49.340;10.886;2023-06-19T05:26:59;20.10;99.90
9385;DHT22;4732;49.340;10.886;2023-06-19T05:29:25;20.20;99.90
9385;DHT22;4732;49.340;10.886;2023-06-19T05:31:51;20.20;99.90
9385;DHT22;4732;49.340;10.886;2023-06-19T05:34:16;20.40;99.90
9385;DHT22;4732;49.340;10.886;2023-06-19T05:36:42;20.50;99.90
9385;DHT22;4732;49.340;10.886;2023-06-19T05:39:10;20.60;99.90
9385;DHT22;4732;49.340;10.886;2023-06-19T05:41:36;20.70;99.90
9385;DHT22;4732;49.340;10.886;2023-06-19T05:44:01;20.80;99.90
9385;DHT22;4732;49.340;10.886;2023-06-19T05:46:27;20.80;99.90
9385;DHT22;4732;49.340;10.886;2023-06-19T05:48:53;20.80;99.90
9385;DHT22;4732;49.340;10.886;2023-06-19T05:51:20;20.80;99.90
9385;DHT22;4732;49.340;10.886;2023-06-19T05:53:45;20.70;99.90
9385;DHT22;4732;49.340;10.886;2023-06-19T05:56:12;20.70;99.90
9385;DHT22;4732;49.340;10.886;2023-06-19T05:58:37;20.80;99.90
9385;DHT22;4732;49.340;10.886;2023-06-19T06:01:04;20.80;99.90
9385;DHT22;4732;49.340;10.886;2023-06-19T06:03:30;20.80;99.90
9385;DHT22;4732;49.340;10.886;2023-06-19T06:05:57;20.80;99.90
9385;DHT22;4732;49.340;10.886;2023-06-19T06:08:31;20.80;99.90
9385;DHT22;4732;49.340;10.886;2023-06-19T06:10:57;20.80;99.90
9385;DHT22;4732;49.340;10.886;2023-06-19T06:13:23;20.90;99.90
9385;DHT22;4732;49.340;10.886;2023-06-19T06:15:49;20.90;99.90
9385;DHT22;4732;49.340;10.886;2023-06-19T06:18:15;21.00;99.90
9385;DHT22;4732;49.340;10.886;2023-06-19T06:20:41;21.00;99.90
9385;DHT22;4732;49.340;10.886;2023-06-19T06:23:07;21.10;99.90
9385;DHT22;4732;49.340;10.886;2023-06-19T06:25:32;21.20;99.90
9385;DHT22;4732;49.340;10.886;2023-06-19T06:27:58;21.30;99.90
9385;DHT22;4732;49.340;10.886;2023-06-19T06:30:23;21.30;99.90
9385;DHT22;4732;49.340;10.886;2023-06-19T06:32:49;21.40;99.90
9385;DHT22;4732;49.340;10.886;2023-06-19T06:35:15;21.50;99.90
9385;DHT22;4732;49.340;10.886;2023-06-19T06:37:41;21.70;99.90
9385;DHT22;4732;49.340;10.886;2023-06-19T06:40:07;21.80;99.90
9385;DHT22;4732;49.340;10.886;2023-06-19T06:42:37;21.80;99.90
9385;DHT22;4732;49.340;10.886;2023-06-19T06:45:04;21.90;99.90
9385;DHT22;4732;49.340;10.886;2023-06-19T06:47:30;22.00;99.90
9385;DHT22;4732;49.340;10.886;2023-06-19T06:49:56;22.10;99.90
9385;DHT22;4732;49.340;10.886;2023-06-19T06:52:21;22.10;99.90
9385;DHT22;4732;49.340;10.886;2023-06-19T06:54:47;22.10;99.90
9385;DHT22;4732;49.340;10.886;2023-06-19T06:57:13;22.10;99.90
9385;DHT22;4732;49.340;10.886;2023-06-19T06:59:38;22.20;99.90
9385;DHT22;4732;49.340;10.886;2023-06-19T07:02:04;22.20;99.90
9385;DHT22;4732;49.340;10.886;2023-06-19T07:04:29;22.20;99.90
9385;DHT22;4732;49.340;10.886;2023-06-19T07:06:55;22.20;99.90
9385;DHT22;4732;49.340;10.886;2023-06-19T07:09:20;22.20;99.90
9385;DHT22;4732;49.340;10.886;2023-06-19T07:11:49;22.40;99.90
9385;DHT22;4732;49.340;10.886;2023-06-19T07:14:15;22.50;99.90
9385;DHT22;4732;49.340;10.886;2023-06-19T07:16:44;22.60;99.90
9385;DHT22;4732;49.340;10.886;2023-06-19T07:19:10;22.80;99.90
9385;DHT22;4732;49.340;10.886;2023-06-19T07:21:36;22.90;99.90
9385;DHT22;4732;49.340;10.886;2023-06-19T07:24:01;22.90;99.90
9385;DHT22;4732;49.340;10.886;2023-06-19T07:26:27;23.00;99.90
9385;DHT22;4732;49.340;10.886;2023-06-19T07:28:52;23.10;99.90
9385;DHT22;4732;49.340;10.886;2023-06-19T07:31:18;23.10;99.90
9385;DHT22;4732;49.340;10.886;2023-06-19T07:33:44;23.20;99.90
9385;DHT22;4732;49.340;10.886;2023-06-19T07:36:10;23.30;99.90
9385;DHT22;4732;49.340;10.886;2023-06-19T07:38:40;23.30;99.90
9385;DHT22;4732;49.340;10.886;2023-06-19T07:41:06;23.40;99.90
9385;DHT22;4732;49.340;10.886;2023-06-19T07:43:34;23.40;99.90
9385;DHT22;4732;49.340;10.886;2023-06-19T07:45:59;23.50;99.90
9385;DHT22;4732;49.340;10.886;2023-06-19T07:48:25;23.30;99.90
9385;DHT22;4732;49.340;10.886;2023-06-19T07:50:50;23.30;99.90
9385;DHT22;4732;49.340;10.886;2023-06-19T07:53:16;23.30;99.90
9385;DHT22;4732;49.340;10.886;2023-06-19T07:55:42;23.20;99.90
9385;DHT22;4732;49.340;10.886;2023-06-19T07:58:07;23.10;99.90
9385;DHT22;4732;49.340;10.886;2023-06-19T08:00:33;23.20;99.90
9385;DHT22;4732;49.340;10.886;2023-06-19T08:02:58;23.20;99.90
9385;DHT22;4732;49.340;10.886;2023-06-19T08:05:24;23.20;99.90
9385;DHT22;4732;49.340;10.886;2023-06-19T08:07:50;23.20;99.90
9385;DHT22;4732;49.340;10.886;2023-06-19T08:10:15;23.30;99.90
9385;DHT22;4732;49.340;10.886;2023-06-19T08:12:42;23.40;99.90
9385;DHT22;4732;49.340;10.886;2023-06-19T08:15:09;23.70;99.90
9385;DHT22;4732;49.340;10.886;2023-06-19T08:17:34;23.70;99.90
9385;DHT22;4732;49.340;10.886;2023-06-19T08:20:01;23.90;99.90
9385;DHT22;4732;49.340;10.886;2023-06-19T08:22:26;23.90;99.90
9385;DHT22;4732;49.340;10.886;2023-06-19T08:24:52;24.10;99.90
9385;DHT22;4732;49.340;10.886;2023-06-19T08:27:18;24.30;99.90
9385;DHT22;4732;49.340;10.886;2023-06-19T08:29:43;24.30;99.90
9385;DHT22;4732;49.340;10.886;2023-06-19T08:32:09;24.40;99.90
9385;DHT22;4732;49.340;10.886;2023-06-19T08:34:35;24.50;99.90
9385;DHT22;4732;49.340;10.886;2023-06-19T08:37:01;24.60;99.90
9385;DHT22;4732;49.340;10.886;2023-06-19T08:39:26;24.70;99.90
9385;DHT22;4732;49.340;10.886;2023-06-19T08:41:52;24.80;99.90
9385;DHT22;4732;49.340;10.886;2023-06-19T08:44:20;24.90;99.90
9385;DHT22;4732;49.340;10.886;2023-06-19T08:46:46;25.10;99.90
9385;DHT22;4732;49.340;10.886;2023-06-19T08:49:12;25.20;99.90
9385;DHT22;4732;49.340;10.886;2023-06-19T08:51:40;25.20;99.90
9385;DHT22;4732;49.340;10.886;2023-06-19T08:54:06;25.20;99.90
9385;DHT22;4732;49.340;10.886;2023-06-19T08:56:34;25.30;99.90
9385;DHT22;4732;49.340;10.886;2023-06-19T08:59:17;25.40;99.90
9385;DHT22;4732;49.340;10.886;2023-06-19T09:01:51;25.40;99.90
9385;DHT22;4732;49.340;10.886;2023-06-19T09:04:18;25.40;99.90
9385;DHT22;4732;49.340;10.886;2023-06-19T09:07:01;25.30;99.90
9385;DHT22;4732;49.340;10.886;2023-06-19T09:09:27;25.50;99.90
9385;DHT22;4732;49.340;10.886;2023-06-19T09:12:04;25.70;99.90
9385;DHT22;4732;49.340;10.886;2023-06-19T09:14:41;26.00;99.90
9385;DHT22;4732;49.340;10.886;2023-06-19T09:17:10;26.20;99.90
9385;DHT22;4732;49.340;10.886;2023-06-19T09:19:36;26.00;99.90
9385;DHT22;4732;49.340;10.886;2023-06-19T09:22:07;26.00;99.90
9385;DHT22;4732;49.340;10.886;2023-06-19T09:24:37;26.10;99.90
9385;DHT22;4732;49.340;10.886;2023-06-19T09:27:14;26.20;99.90
9385;DHT22;4732;49.340;10.886;2023-06-19T09:29:44;26.20;99.90
9385;DHT22;4732;49.340;10.886;2023-06-19T09:32:23;26.10;99.90
9385;DHT22;4732;49.340;10.886;2023-06-19T09:34:50;26.30;99.90
9385;DHT22;4732;49.340;10.886;2023-06-19T09:39:56;26.50;99.90
9385;DHT22;4732;49.340;10.886;2023-06-19T09:42:32;26.50;99.90
9385;DHT22;4732;49.340;10.886;2023-06-19T09:45:03;26.60;99.90
9385;DHT22;4732;49.340;10.886;2023-06-19T09:47:44;26.70;99.90
9385;DHT22;4732;49.340;10.886;2023-06-19T09:50:12;26.80;99.90
9385;DHT22;4732;49.340;10.886;2023-06-19T09:52:40;26.80;99.90
9385;DHT22;4732;49.340;10.886;2023-06-19T09:55:06;26.80;99.90
9385;DHT22;4732;49.340;10.886;2023-06-19T09:57:34;26.70;99.90
9385;DHT22;4732;49.340;10.886;2023-06-19T10:00:00;26.90;99.90
9385;DHT22;4732;49.340;10.886;2023-06-19T10:02:36;27.00;99.90
9385;DHT22;4732;49.340;10.886;2023-06-19T10:05:03;27.00;99.90
9385;DHT22;4732;49.340;10.886;2023-06-19T10:07:34;27.20;99.90
9385;DHT22;4732;49.340;10.886;2023-06-19T10:10:05;27.40;99.90
9385;DHT22;4732;49.340;10.886;2023-06-19T10:12:39;27.60;99.90
9385;DHT22;4732;49.340;10.886;2023-06-19T10:15:28;27.70;99.90
9385;DHT22;4732;49.340;10.886;2023-06-19T10:18:03;27.90;99.90
9385;DHT22;4732;49.340;10.886;2023-06-19T10:20:36;27.90;99.90
9385;DHT22;4732;49.340;10.886;2023-06-19T10:23:14;27.80;99.90
9385;DHT22;4732;49.340;10.886;2023-06-19T10:25:44;27.80;99.90
9385;DHT22;4732;49.340;10.886;2023-06-19T10:28:20;27.80;99.90
9385;DHT22;4732;49.340;10.886;2023-06-19T10:30:53;27.80;99.90
9385;DHT22;4732;49.340;10.886;2023-06-19T10:33:20;27.80;99.90
9385;DHT22;4732;49.340;10.886;2023-06-19T10:35:46;27.80;99.90
9385;DHT22;4732;49.340;10.886;2023-06-19T10:38:15;27.90;99.90
9385;DHT22;4732;49.340;10.886;2023-06-19T10:40:40;28.30;99.90
9385;DHT22;4732;49.340;10.886;2023-06-19T10:43:06;28.60;99.90
9385;DHT22;4732;49.340;10.886;2023-06-19T10:45:32;28.70;99.90
9385;DHT22;4732;49.340;10.886;2023-06-19T10:48:01;28.50;99.90
9385;DHT22;4732;49.340;10.886;2023-06-19T10:50:28;28.50;99.80
9385;DHT22;4732;49.340;10.886;2023-06-19T10:52:53;28.50;99.90
9385;DHT22;4732;49.340;10.886;2023-06-19T10:55:22;28.50;99.90
9385;DHT22;4732;49.340;10.886;2023-06-19T10:57:49;28.70;99.90
9385;DHT22;4732;49.340;10.886;2023-06-19T11:00:25;28.70;99.10
9385;DHT22;4732;49.340;10.886;2023-06-19T11:02:51;28.80;99.30
9385;DHT22;4732;49.340;10.886;2023-06-19T11:05:19;29.00;99.90
9385;DHT22;4732;49.340;10.886;2023-06-19T11:07:54;29.30;99.90
9385;DHT22;4732;49.340;10.886;2023-06-19T11:10:22;29.60;99.90
9385;DHT22;4732;49.340;10.886;2023-06-19T11:12:48;29.90;99.90
9385;DHT22;4732;49.340;10.886;2023-06-19T11:15:14;30.30;99.90
9385;DHT22;4732;49.340;10.886;2023-06-19T11:17:40;30.40;99.50
9385;DHT22;4732;49.340;10.886;2023-06-19T11:20:10;30.60;98.60
9385;DHT22;4732;49.340;10.886;2023-06-19T11:22:40;30.60;98.20
9385;DHT22;4732;49.340;10.886;2023-06-19T11:25:07;30.80;99.10
9385;DHT22;4732;49.340;10.886;2023-06-19T11:27:36;30.90;95.90
9385;DHT22;4732;49.340;10.886;2023-06-19T11:30:02;30.40;95.60
9385;DHT22;4732;49.340;10.886;2023-06-19T11:32:31;30.40;96.20
9385;DHT22;4732;49.340;10.886;2023-06-19T11:34:57;30.70;96.00
9385;DHT22;4732;49.340;10.886;2023-06-19T11:37:29;30.90;96.20
9385;DHT22;4732;49.340;10.886;2023-06-19T11:39:57;31.30;97.10
9385;DHT22;4732;49.340;10.886;2023-06-19T11:42:22;31.50;95.00
9385;DHT22;4732;49.340;10.886;2023-06-19T11:44:59;31.70;96.10
9385;DHT22;4732;49.340;10.886;2023-06-19T11:47:26;31.90;94.40
9385;DHT22;4732;49.340;10.886;2023-06-19T11:49:51;32.00;94.00
9385;DHT22;4732;49.340;10.886;2023-06-19T11:52:17;31.80;93.50
9385;DHT22;4732;49.340;10.886;2023-06-19T11:54:43;31.20;93.00
9385;DHT22;4732;49.340;10.886;2023-06-19T11:57:09;31.30;93.70
9385;DHT22;4732;49.340;10.886;2023-06-19T11:59:41;31.40;92.80
9385;DHT22;4732;49.340;10.886;2023-06-19T12:02:08;32.00;92.40
9385;DHT22;4732;49.340;10.886;2023-06-19T12:04:33;32.30;93.90
9385;DHT22;4732;49.340;10.886;2023-06-19T12:07:00;31.80;93.70
9385;DHT22;4732;49.340;10.886;2023-06-19T12:09:26;31.50;92.70
9385;DHT22;4732;49.340;10.886;2023-06-19T12:11:51;31.30;93.90
9385;DHT22;4732;49.340;10.886;2023-06-19T12:14:17;30.80;93.40
9385;DHT22;4732;49.340;10.886;2023-06-19T12:16:45;30.30;93.80
9385;DHT22;4732;49.340;10.886;2023-06-19T12:19:11;30.10;94.10
9385;DHT22;4732;49.340;10.886;2023-06-19T12:21:37;29.70;96.30
9385;DHT22;4732;49.340;10.886;2023-06-19T12:24:02;29.40;95.30
9385;DHT22;4732;49.340;10.886;2023-06-19T12:26:28;29.20;95.70
9385;DHT22;4732;49.340;10.886;2023-06-19T12:32:16;28.80;95.80
9385;DHT22;4732;49.340;10.886;2023-06-19T12:34:41;28.50;97.00
9385;DHT22;4732;49.340;10.886;2023-06-19T12:37:15;28.40;97.20
9385;DHT22;4732;49.340;10.886;2023-06-19T12:39:41;28.30;97.70
9385;DHT22;4732;49.340;10.886;2023-06-19T12:42:13;28.10;97.70
9385;DHT22;4732;49.340;10.886;2023-06-19T12:44:40;28.20;99.70
9385;DHT22;4732;49.340;10.886;2023-06-19T12:47:06;28.10;98.50
9385;DHT22;4732;49.340;10.886;2023-06-19T12:49:32;28.30;99.90
9385;DHT22;4732;49.340;10.886;2023-06-19T12:52:07;28.60;99.90
9385;DHT22;4732;49.340;10.886;2023-06-19T12:54:33;29.20;99.10
9385;DHT22;4732;49.340;10.886;2023-06-19T13:00:46;30.10;97.80
9385;DHT22;4732;49.340;10.886;2023-06-19T13:03:11;30.20;96.50
9385;DHT22;4732;49.340;10.886;2023-06-19T13:05:37;30.20;96.50
9385;DHT22;4732;49.340;10.886;2023-06-19T13:08:02;30.70;96.40
9385;DHT22;4732;49.340;10.886;2023-06-19T13:10:28;31.30;97.60
9385;DHT22;4732;49.340;10.886;2023-06-19T13:12:53;31.70;95.60
9385;DHT22;4732;49.340;10.886;2023-06-19T13:15:19;32.00;94.20
9385;DHT22;4732;49.340;10.886;2023-06-19T13:17:45;32.20;93.90
9385;DHT22;4732;49.340;10.886;2023-06-19T13:20:11;32.40;93.10
9385;DHT22;4732;49.340;10.886;2023-06-19T13:22:36;32.60;93.40
9385;DHT22;4732;49.340;10.886;2023-06-19T13:25:08;32.40;92.90
9385;DHT22;4732;49.340;10.886;2023-06-19T13:27:34;32.00;93.50
9385;DHT22;4732;49.340;10.886;2023-06-19T13:30:01;31.60;93.70
9385;DHT22;4732;49.340;10.886;2023-06-19T13:32:27;31.20;93.20
9385;DHT22;4732;49.340;10.886;2023-06-19T13:34:59;31.30;93.90
9385;DHT22;4732;49.340;10.886;2023-06-19T13:40:49;31.70;92.90
9385;DHT22;4732;49.340;10.886;2023-06-19T13:50:29;31.20;93.30
9385;DHT22;4732;49.340;10.886;2023-06-19T13:52:54;30.90;94.10
9385;DHT22;4732;49.340;10.886;2023-06-19T13:55:23;30.40;94.30
9385;DHT22;4732;49.340;10.886;2023-06-19T14:01:23;29.70;95.60
9385;DHT22;4732;49.340;10.886;2023-06-19T14:03:50;29.50;95.50
9385;DHT22;4732;49.340;10.886;2023-06-19T14:06:16;29.30;95.70
9385;DHT22;4732;49.340;10.886;2023-06-19T14:12:10;29.00;96.70
9385;DHT22;4732;49.340;10.886;2023-06-19T14:21:24;28.50;97.30
9385;DHT22;4732;49.340;10.886;2023-06-19T14:23:49;28.30;97.80
9385;DHT22;4732;49.340;10.886;2023-06-19T14:26:15;28.20;99.90
9385;DHT22;4732;49.340;10.886;2023-06-19T14:28:40;28.00;99.20
9385;DHT22;4732;49.340;10.886;2023-06-19T14:31:06;28.00;99.90
9385;DHT22;4732;49.340;10.886;2023-06-19T14:33:32;27.90;99.90
9385;DHT22;4732;49.340;10.886;2023-06-19T14:36:01;28.00;99.90
9385;DHT22;4732;49.340;10.886;2023-06-19T14:38:28;27.90;99.90
9385;DHT22;4732;49.340;10.886;2023-06-19T14:40:57;27.80;99.90
9385;DHT22;4732;49.340;10.886;2023-06-19T14:43:24;27.80;99.90
9385;DHT22;4732;49.340;10.886;2023-06-19T14:45:49;27.80;99.90
9385;DHT22;4732;49.340;10.886;2023-06-19T14:48:15;27.70;99.90
9385;DHT22;4732;49.340;10.886;2023-06-19T14:50:40;27.50;99.90
9385;DHT22;4732;49.340;10.886;2023-06-19T14:53:06;27.20;99.90
9385;DHT22;4732;49.340;10.886;2023-06-19T14:55:32;27.00;99.90
9385;DHT22;4732;49.340;10.886;2023-06-19T14:57:59;27.00;99.90
9385;DHT22;4732;49.340;10.886;2023-06-19T15:00:25;27.00;99.90
9385;DHT22;4732;49.340;10.886;2023-06-19T15:02:51;26.90;99.90
9385;DHT22;4732;49.340;10.886;2023-06-19T15:05:16;26.90;99.90
9385;DHT22;4732;49.340;10.886;2023-06-19T15:07:42;26.80;99.90
9385;DHT22;4732;49.340;10.886;2023-06-19T15:10:08;26.80;99.90
9385;DHT22;4732;49.340;10.886;2023-06-19T15:12:33;26.70;99.90
9385;DHT22;4732;49.340;10.886;2023-06-19T15:15:00;26.70;99.90
9385;DHT22;4732;49.340;10.886;2023-06-19T15:17:26;27.00;99.90
9385;DHT22;4732;49.340;10.886;2023-06-19T15:19:52;27.20;99.90
9385;DHT22;4732;49.340;10.886;2023-06-19T15:22:17;26.90;99.90
9385;DHT22;4732;49.340;10.886;2023-06-19T15:24:43;27.00;99.90
9385;DHT22;4732;49.340;10.886;2023-06-19T15:27:08;27.40;99.90
9385;DHT22;4732;49.340;10.886;2023-06-19T15:29:34;27.80;99.90
9385;DHT22;4732;49.340;10.886;2023-06-19T15:32:01;28.30;99.90
9385;DHT22;4732;49.340;10.886;2023-06-19T15:34:26;28.80;99.90
9385;DHT22;4732;49.340;10.886;2023-06-19T15:36:52;29.40;99.90
9385;DHT22;4732;49.340;10.886;2023-06-19T15:39:17;29.80;99.90
9385;DHT22;4732;49.340;10.886;2023-06-19T15:41:44;30.00;99.90
9385;DHT22;4732;49.340;10.886;2023-06-19T15:44:10;30.10;99.90
9385;DHT22;4732;49.340;10.886;2023-06-19T15:46:36;30.20;99.90
9385;DHT22;4732;49.340;10.886;2023-06-19T15:49:02;30.10;99.90
9385;DHT22;4732;49.340;10.886;2023-06-19T15:51:28;30.00;99.90
9385;DHT22;4732;49.340;10.886;2023-06-19T15:53:54;30.00;99.90
9385;DHT22;4732;49.340;10.886;2023-06-19T15:56:19;29.90;99.80
9385;DHT22;4732;49.340;10.886;2023-06-19T15:58:45;29.80;99.90
9385;DHT22;4732;49.340;10.886;2023-06-19T16:01:10;29.70;99.90
9385;DHT22;4732;49.340;10.886;2023-06-19T16:03:36;29.70;99.90
9385;DHT22;4732;49.340;10.886;2023-06-19T16:06:02;29.70;99.90
9385;DHT22;4732;49.340;10.886;2023-06-19T16:08:27;29.80;99.90
9385;DHT22;4732;49.340;10.886;2023-06-19T16:10:53;29.80;99.60
9385;DHT22;4732;49.340;10.886;2023-06-19T16:13:19;29.80;99.90
9385;DHT22;4732;49.340;10.886;2023-06-19T16:15:45;29.90;99.40
9385;DHT22;4732;49.340;10.886;2023-06-19T16:18:10;30.00;99.10
9385;DHT22;4732;49.340;10.886;2023-06-19T16:20:36;29.90;99.40
9385;DHT22;4732;49.340;10.886;2023-06-19T16:23:01;29.70;99.90
9385;DHT22;4732;49.340;10.886;2023-06-19T16:25:27;29.60;99.60
9385;DHT22;4732;49.340;10.886;2023-06-19T16:27:52;29.50;99.80
9385;DHT22;4732;49.340;10.886;2023-06-19T16:30:19;29.50;99.90
9385;DHT22;4732;49.340;10.886;2023-06-19T16:32:44;29.50;99.70
9385;DHT22;4732;49.340;10.886;2023-06-19T16:35:10;29.50;99.90
9385;DHT22;4732;49.340;10.886;2023-06-19T16:37:37;29.50;99.90
9385;DHT22;4732;49.340;10.886;2023-06-19T16:40:03;29.50;99.80
9385;DHT22;4732;49.340;10.886;2023-06-19T16:42:32;29.60;99.90
9385;DHT22;4732;49.340;10.886;2023-06-19T16:44:57;29.80;99.80
9385;DHT22;4732;49.340;10.886;2023-06-19T16:47:23;29.70;99.50
9385;DHT22;4732;49.340;10.886;2023-06-19T16:49:49;29.70;99.50
9385;DHT22;4732;49.340;10.886;2023-06-19T16:52:14;29.50;99.80
9385;DHT22;4732;49.340;10.886;2023-06-19T16:54:40;29.60;99.90
9385;DHT22;4732;49.340;10.886;2023-06-19T16:57:05;29.60;99.90
9385;DHT22;4732;49.340;10.886;2023-06-19T16:59:31;29.60;99.80
9385;DHT22;4732;49.340;10.886;2023-06-19T17:01:57;29.40;99.90
9385;DHT22;4732;49.340;10.886;2023-06-19T17:04:22;29.20;99.90
9385;DHT22;4732;49.340;10.886;2023-06-19T17:06:48;29.00;99.90
9385;DHT22;4732;49.340;10.886;2023-06-19T17:09:14;28.70;99.90
9385;DHT22;4732;49.340;10.886;2023-06-19T17:11:40;28.50;99.90
9385;DHT22;4732;49.340;10.886;2023-06-19T17:14:05;28.30;99.90
9385;DHT22;4732;49.340;10.886;2023-06-19T17:16:31;28.20;99.90
9385;DHT22;4732;49.340;10.886;2023-06-19T17:18:57;28.10;99.90
9385;DHT22;4732;49.340;10.886;2023-06-19T17:21:22;28.00;99.90
9385;DHT22;4732;49.340;10.886;2023-06-19T17:23:48;27.90;99.90
9385;DHT22;4732;49.340;10.886;2023-06-19T17:26:13;27.80;99.90
9385;DHT22;4732;49.340;10.886;2023-06-19T17:28:39;27.70;99.90
9385;DHT22;4732;49.340;10.886;2023-06-19T17:31:04;27.60;99.90
9385;DHT22;4732;49.340;10.886;2023-06-19T17:33:33;27.50;99.90
9385;DHT22;4732;49.340;10.886;2023-06-19T17:35:58;27.50;99.90
9385;DHT22;4732;49.340;10.886;2023-06-19T17:38:25;27.50;99.90
9385;DHT22;4732;49.340;10.886;2023-06-19T17:40:51;27.40;99.90
9385;DHT22;4732;49.340;10.886;2023-06-19T17:43:17;27.40;99.90
9385;DHT22;4732;49.340;10.886;2023-06-19T17:45:42;27.30;99.90
9385;DHT22;4732;49.340;10.886;2023-06-19T17:48:08;27.20;99.90
9385;DHT22;4732;49.340;10.886;2023-06-19T17:50:33;27.10;99.90
9385;DHT22;4732;49.340;10.886;2023-06-19T17:52:59;27.00;99.90
9385;DHT22;4732;49.340;10.886;2023-06-19T17:55:25;27.00;99.90
9385;DHT22;4732;49.340;10.886;2023-06-19T17:57:51;26.90;99.90
9385;DHT22;4732;49.340;10.886;2023-06-19T18:00:16;26.80;99.90
9385;DHT22;4732;49.340;10.886;2023-06-19T18:02:42;26.70;99.90
9385;DHT22;4732;49.340;10.886;2023-06-19T18:05:08;26.70;99.90
9385;DHT22;4732;49.340;10.886;2023-06-19T18:07:34;26.70;99.90
9385;DHT22;4732;49.340;10.886;2023-06-19T18:09:59;26.70;99.90
9385;DHT22;4732;49.340;10.886;2023-06-19T18:12:25;26.70;99.90
9385;DHT22;4732;49.340;10.886;2023-06-19T18:14:51;26.70;99.90
9385;DHT22;4732;49.340;10.886;2023-06-19T18:17:16;26.60;99.90
9385;DHT22;4732;49.340;10.886;2023-06-19T18:19:42;26.60;99.90
9385;DHT22;4732;49.340;10.886;2023-06-19T18:22:07;26.50;99.90
9385;DHT22;4732;49.340;10.886;2023-06-19T18:24:33;26.30;99.90
9385;DHT22;4732;49.340;10.886;2023-06-19T18:26:58;26.20;99.90
9385;DHT22;4732;49.340;10.886;2023-06-19T18:29:24;26.20;99.90
9385;DHT22;4732;49.340;10.886;2023-06-19T18:31:51;26.10;99.90
9385;DHT22;4732;49.340;10.886;2023-06-19T18:34:16;26.10;99.90
9385;DHT22;4732;49.340;10.886;2023-06-19T18:36:42;26.00;99.90
9385;DHT22;4732;49.340;10.886;2023-06-19T18:39:08;25.80;99.90
9385;DHT22;4732;49.340;10.886;2023-06-19T18:41:34;25.60;99.90
9385;DHT22;4732;49.340;10.886;2023-06-19T18:43:59;25.30;99.90
9385;DHT22;4732;49.340;10.886;2023-06-19T18:46:25;25.20;99.90
9385;DHT22;4732;49.340;10.886;2023-06-19T18:48:51;25.20;99.90
9385;DHT22;4732;49.340;10.886;2023-06-19T18:51:16;25.00;99.90
9385;DHT22;4732;49.340;10.886;2023-06-19T18:53:42;24.90;99.90
9385;DHT22;4732;49.340;10.886;2023-06-19T18:56:08;24.80;99.90
9385;DHT22;4732;49.340;10.886;2023-06-19T18:58:34;24.60;99.90
9385;DHT22;4732;49.340;10.886;2023-06-19T19:00:59;24.50;99.90
9385;DHT22;4732;49.340;10.886;2023-06-19T19:03:25;24.50;99.90
9385;DHT22;4732;49.340;10.886;2023-06-19T19:05:50;24.40;99.90
9385;DHT22;4732;49.340;10.886;2023-06-19T19:08:16;24.30;99.90
9385;DHT22;4732;49.340;10.886;2023-06-19T19:10:42;24.20;99.90
9385;DHT22;4732;49.340;10.886;2023-06-19T19:13:08;24.20;99.90
9385;DHT22;4732;49.340;10.886;2023-06-19T19:15:34;24.10;99.90
9385;DHT22;4732;49.340;10.886;2023-06-19T19:18:00;24.00;99.90
9385;DHT22;4732;49.340;10.886;2023-06-19T19:20:26;23.90;99.90
9385;DHT22;4732;49.340;10.886;2023-06-19T19:22:52;23.80;99.90
9385;DHT22;4732;49.340;10.886;2023-06-19T19:25:18;23.80;99.90
9385;DHT22;4732;49.340;10.886;2023-06-19T19:27:43;23.90;99.90
9385;DHT22;4732;49.340;10.886;2023-06-19T19:30:09;23.90;99.90
9385;DHT22;4732;49.340;10.886;2023-06-19T19:32:35;24.00;99.90
9385;DHT22;4732;49.340;10.886;2023-06-19T19:35:00;23.90;99.90
9385;DHT22;4732;49.340;10.886;2023-06-19T19:37:26;23.90;99.90
9385;DHT22;4732;49.340;10.886;2023-06-19T19:39:57;23.90;99.90
9385;DHT22;4732;49.340;10.886;2023-06-19T19:42:23;23.90;99.90
9385;DHT22;4732;49.340;10.886;2023-06-19T19:44:49;23.80;99.90
9385;DHT22;4732;49.340;10.886;2023-06-19T19:47:15;23.80;99.90